createdAt,value
2022-08-25T00:02:35.342Z,98525.78
2022-08-25T00:05:37.618Z,98516.97
2022-08-25T00:08:39.960Z,98526.63
2022-08-25T00:11:41.362Z,98522.41
2022-08-25T00:14:43.447Z,98529.59
2022-08-25T00:17:44.806Z,98529.47
2022-08-25T00:20:47.215Z,98526.22
2022-08-25T00:23:50.498Z,98527.41
2022-08-25T00:26:52.498Z,98528.47
2022-08-25T00:29:54.060Z,98526.72
2022-08-25T00:32:57.409Z,98526.78
2022-08-25T00:35:59.999Z,98520.72
2022-08-25T00:39:01.386Z,98518.91
2022-08-25T00:42:03.100Z,98518.75
2022-08-25T00:45:05.727Z,98523.88
2022-08-25T00:48:07.189Z,98515.94
2022-08-25T00:51:09.633Z,98530.72
2022-08-25T00:54:15.879Z,98529.78
2022-08-25T00:57:18.761Z,98535.13
2022-08-25T01:00:25.393Z,98538.97
2022-08-25T01:03:33.185Z,98543.72
2022-08-25T01:06:38.324Z,98536.06
2022-08-25T01:09:39.795Z,98541.50
2022-08-25T01:12:43.002Z,98544.91
2022-08-25T01:15:45.449Z,98550.66
2022-08-25T01:18:50.890Z,98548.66
2022-08-25T01:21:52.421Z,98545.22
2022-08-25T01:24:56.637Z,98543.19
2022-08-25T01:27:57.998Z,98544.31
2022-08-25T01:30:59.562Z,98538.38
2022-08-25T01:34:01.012Z,98538.53
2022-08-25T01:37:02.407Z,98534.41
2022-08-25T01:40:04.473Z,98544.09
2022-08-25T01:43:15.188Z,98544.09
2022-08-25T01:46:16.582Z,98547.84
2022-08-25T01:49:17.991Z,98546.28
2022-08-25T01:52:20.271Z,98536.41
2022-08-25T01:55:22.851Z,98543.75
2022-08-25T01:58:34.671Z,98533.94
2022-08-25T02:01:36.129Z,98536.97
2022-08-25T02:04:37.785Z,98534.75
2022-08-25T02:07:39.144Z,98542.75
2022-08-25T02:10:40.640Z,98538.44
2022-08-25T02:13:42.105Z,98541.75
2022-08-25T02:16:45.032Z,98542.38
2022-08-25T02:19:46.448Z,98539.75
2022-08-25T02:22:56.586Z,98533.97
2022-08-25T02:25:58.484Z,98529.00
2022-08-25T02:28:59.988Z,98523.56
2022-08-25T02:32:01.525Z,98523.88
2022-08-25T02:35:02.912Z,98524.16
2022-08-25T02:38:04.467Z,98522.53
2022-08-25T02:41:33.482Z,98525.13
2022-08-25T02:44:34.834Z,98517.47
2022-08-25T02:47:37.141Z,98524.41
2022-08-25T02:50:38.517Z,98525.13
2022-08-25T02:53:40.442Z,98526.88
2022-08-25T02:56:42.722Z,98523.75
2022-08-25T02:59:48.357Z,98525.41
2022-08-25T03:02:49.708Z,98522.59
2022-08-25T03:05:51.212Z,98521.91
2022-08-25T03:08:53.079Z,98522.91
2022-08-25T03:11:54.597Z,98514.84
2022-08-25T03:14:55.965Z,98514.06
2022-08-25T03:17:57.734Z,98513.06
2022-08-25T03:21:01.302Z,98512.06
2022-08-25T03:24:02.717Z,98499.56
2022-08-25T03:27:04.921Z,98498.63
2022-08-25T03:30:06.834Z,98498.06
2022-08-25T03:33:08.176Z,98506.16
2022-08-25T03:36:12.000Z,98514.81
2022-08-25T03:39:13.666Z,98506.91
2022-08-25T03:42:15.003Z,98509.84
2022-08-25T03:45:16.506Z,98518.31
2022-08-25T03:48:17.933Z,98509.91
2022-08-25T03:51:27.598Z,98517.88
2022-08-25T03:54:28.993Z,98525.72
2022-08-25T03:57:30.336Z,98525.06
2022-08-25T04:00:31.754Z,98521.72
2022-08-25T04:03:33.137Z,98515.63
2022-08-25T04:06:34.496Z,98518.94
2022-08-25T04:09:36.995Z,98524.28
2022-08-25T04:12:38.466Z,98519.06
2022-08-25T04:15:42.141Z,98521.59
2022-08-25T04:18:43.569Z,98519.16
2022-08-25T04:21:44.905Z,98515.06
2022-08-25T04:24:46.270Z,98518.72
2022-08-25T04:27:47.975Z,98515.00
2022-08-25T04:30:52.122Z,98519.66
2022-08-25T04:33:54.088Z,98519.84
2022-08-25T04:36:55.436Z,98513.59
2022-08-25T04:39:56.925Z,98507.41
2022-08-25T04:42:58.317Z,98512.66
2022-08-25T04:45:59.720Z,98515.75
2022-08-25T04:49:01.430Z,98504.47
2022-08-25T04:52:02.944Z,98504.31
2022-08-25T04:55:05.727Z,98509.53
2022-08-25T04:58:07.171Z,98505.28
2022-08-25T05:01:17.358Z,98510.63
2022-08-25T05:04:27.813Z,98510.53
2022-08-25T05:07:30.280Z,98512.19
2022-08-25T05:10:31.672Z,98510.53
2022-08-25T05:13:34.039Z,98518.31
2022-08-25T05:16:35.953Z,98516.66
2022-08-25T05:19:37.336Z,98511.38
2022-08-25T05:22:38.720Z,98520.09
2022-08-25T05:25:40.200Z,98512.06
2022-08-25T05:28:42.049Z,98509.19
2022-08-25T05:31:49.527Z,98500.97
2022-08-25T05:34:51.566Z,98492.72
2022-08-25T05:37:52.903Z,98485.59
2022-08-25T05:40:57.751Z,98490.16
2022-08-25T05:43:59.106Z,98494.38
2022-08-25T05:47:00.437Z,98487.19
2022-08-25T05:50:01.788Z,98479.84
2022-08-25T05:53:03.129Z,98474.25
2022-08-25T05:56:04.501Z,98483.69
2022-08-25T05:59:09.264Z,98470.28
2022-08-25T06:02:29.730Z,98466.59
2022-08-25T06:05:32.424Z,98461.88
2022-08-25T06:08:33.785Z,98461.56
2022-08-25T06:11:35.604Z,98461.09
2022-08-25T06:14:36.949Z,98455.28
2022-08-25T06:17:41.730Z,98456.59
2022-08-25T06:20:43.436Z,98457.91
2022-08-25T06:23:44.802Z,98451.47
2022-08-25T06:26:46.148Z,98450.38
2022-08-25T06:29:47.551Z,98443.84
2022-08-25T06:32:49.221Z,98433.59
2022-08-25T06:35:52.983Z,98420.47
2022-08-25T06:38:54.343Z,98428.53
2022-08-25T06:41:56.402Z,98431.69
2022-08-25T06:44:57.776Z,98432.25
2022-08-25T06:47:59.450Z,98427.56
2022-08-25T06:51:00.938Z,98425.41
2022-08-25T06:54:02.378Z,98420.38
2022-08-25T06:57:03.846Z,98426.03
2022-08-25T07:00:06.048Z,98429.06
2022-08-25T07:03:07.378Z,98423.56
2022-08-25T07:06:08.765Z,98419.94
2022-08-25T07:09:10.381Z,98423.56
2022-08-25T07:12:11.712Z,98429.78
2022-08-25T07:15:20.999Z,98429.91
2022-08-25T07:18:22.975Z,98421.34
2022-08-25T07:21:27.860Z,98425.06
2022-08-25T07:24:32.811Z,98426.28
2022-08-25T07:27:34.226Z,98427.78
2022-08-25T07:30:35.568Z,98418.53
2022-08-25T07:33:36.924Z,98429.34
2022-08-25T07:36:38.291Z,98431.25
2022-08-25T07:39:42.436Z,98425.06
2022-08-25T07:42:43.879Z,98427.19
2022-08-25T07:45:49.084Z,98437.59
2022-08-25T07:48:53.259Z,98431.59
2022-08-25T07:52:04.615Z,98434.91
2022-08-25T07:55:08.352Z,98446.59
2022-08-25T07:58:12.698Z,98435.53
2022-08-25T08:01:14.908Z,98436.59
2022-08-25T08:04:16.412Z,98443.38
2022-08-25T08:07:18.523Z,98438.22
2022-08-25T08:13:42.133Z,98439.59
2022-08-25T08:16:43.609Z,98436.56
2022-08-25T08:19:45.443Z,98430.94
2022-08-25T08:22:46.873Z,98425.22
2022-08-25T08:25:49.224Z,98417.22
2022-08-25T08:28:52.155Z,98410.25
2022-08-25T08:31:53.798Z,98414.84
2022-08-25T08:34:55.169Z,98410.94
2022-08-25T08:37:56.916Z,98405.34
2022-08-25T08:41:23.248Z,98396.97
2022-08-25T08:44:34.090Z,98391.81
2022-08-25T08:47:50.572Z,98397.69
2022-08-25T08:50:54.881Z,98403.53
2022-08-25T08:53:57.173Z,98392.75
2022-08-25T08:57:03.203Z,98392.94
2022-08-25T09:00:05.507Z,98383.63
2022-08-25T09:03:08.610Z,98387.59
2022-08-25T09:06:11.457Z,98385.25
2022-08-25T09:09:12.836Z,98360.47
2022-08-25T09:12:20.308Z,98364.72
2022-08-25T09:15:55.234Z,98365.25
2022-08-25T09:19:05.324Z,98369.78
2022-08-25T09:22:35.947Z,98366.47
2022-08-25T09:25:56.845Z,98371.63
2022-08-25T09:29:16.379Z,98356.91
2022-08-25T09:32:24.114Z,98348.03
2022-08-25T09:35:33.577Z,98349.94
2022-08-25T09:38:36.115Z,98353.09
2022-08-25T09:41:40.401Z,98358.34
2022-08-25T09:44:43.667Z,98334.03
2022-08-25T09:47:45.410Z,98339.22
2022-08-25T09:50:48.196Z,98337.88
2022-08-25T09:53:55.753Z,98335.75
2022-08-25T09:56:58.342Z,98338.72
2022-08-25T10:00:15.138Z,98327.09
2022-08-25T10:03:22.422Z,98329.09
2022-08-25T10:06:26.454Z,98313.28
2022-08-25T10:09:48.190Z,98295.47
2022-08-25T10:13:03.342Z,98298.00
2022-08-25T10:16:20.545Z,98296.22
2022-08-25T10:19:28.882Z,98298.72
2022-08-25T10:22:34.487Z,98292.22
2022-08-25T10:25:35.856Z,98307.72
2022-08-25T10:28:37.123Z,98293.78
2022-08-25T10:31:49.367Z,98280.44
2022-08-25T10:34:51.925Z,98280.72
2022-08-25T10:37:56.843Z,98263.69
2022-08-25T10:41:07.240Z,98280.13
2022-08-25T10:44:31.038Z,98264.50
2022-08-25T10:47:51.168Z,98270.41
2022-08-25T10:51:01.621Z,98258.50
2022-08-25T10:54:03.328Z,98249.63
2022-08-25T10:57:04.643Z,98240.88
2022-08-25T11:00:14.576Z,98245.81
2022-08-25T11:03:26.707Z,98244.78
2022-08-25T11:06:46.906Z,98219.72
2022-08-25T11:09:51.116Z,98223.16
2022-08-25T11:12:56.279Z,98216.72
2022-08-25T11:16:19.176Z,98199.28
2022-08-25T11:19:26.965Z,98208.44
2022-08-25T11:22:34.451Z,98212.00
2022-08-25T11:25:38.263Z,98208.44
2022-08-25T11:28:39.552Z,98200.91
2022-08-25T11:31:43.678Z,98209.16
2022-08-25T11:34:45.523Z,98199.94
2022-08-25T11:38:05.905Z,98185.34
2022-08-25T11:41:17.422Z,98183.50
2022-08-25T11:44:23.754Z,98178.41
2022-08-25T11:47:35.034Z,98161.44
2022-08-25T11:50:37.406Z,98178.69
2022-08-25T11:53:42.242Z,98176.13
2022-08-25T11:56:43.801Z,98174.91
2022-08-25T11:59:49.360Z,98175.19
2022-08-25T12:02:51.217Z,98158.38
2022-08-25T12:06:12.511Z,98146.09
2022-08-25T12:09:17.359Z,98148.31
2022-08-25T12:12:28.807Z,98135.59
2022-08-25T12:15:34.700Z,98135.03
2022-08-25T12:18:36.101Z,98130.41
2022-08-25T12:21:37.525Z,98136.88
2022-08-25T12:24:41.866Z,98139.72
2022-08-25T12:27:58.202Z,98135.31
2022-08-25T12:31:01.676Z,98133.19
2022-08-25T12:34:08.818Z,98125.25
2022-08-25T12:37:14.910Z,98130.31
2022-08-25T12:40:20.992Z,98131.44
2022-08-25T12:43:37.153Z,98124.81
2022-08-25T12:46:39.374Z,98114.25
2022-08-25T12:49:40.769Z,98111.94
2022-08-25T12:52:42.344Z,98105.69
2022-08-25T12:55:50.008Z,98107.06
2022-08-25T12:59:03.836Z,98122.22
2022-08-25T13:02:17.407Z,98114.84
2022-08-25T13:05:33.907Z,98127.47
2022-08-25T13:08:50.306Z,98124.81
2022-08-25T13:11:56.596Z,98135.31
2022-08-25T13:14:58.103Z,98124.09
2022-08-25T13:18:19.449Z,98116.72
2022-08-25T13:21:24.666Z,98121.13
2022-08-25T13:27:55.485Z,98132.38
2022-08-25T13:31:01.168Z,98127.41
2022-08-25T13:34:05.712Z,98127.28
2022-08-25T13:37:26.518Z,98130.38
2022-08-25T13:40:34.376Z,98121.75
2022-08-25T13:43:38.687Z,98121.44
2022-08-25T13:46:40.316Z,98111.47
2022-08-25T13:49:43.477Z,98092.28
2022-08-25T13:52:46.941Z,98103.28
2022-08-25T13:55:52.339Z,98093.56
2022-08-25T13:58:53.895Z,98111.78
2022-08-25T14:01:59.990Z,98100.38
2022-08-25T14:05:01.479Z,98094.66
2022-08-25T14:08:16.124Z,98088.28
2022-08-25T14:11:27.822Z,98093.38
2022-08-25T14:14:31.039Z,98088.09
2022-08-25T14:17:39.778Z,98085.97
2022-08-25T14:20:46.727Z,98092.31
2022-08-25T14:23:48.076Z,98089.22
2022-08-25T14:26:53.884Z,98084.13
2022-08-25T14:29:56.021Z,98088.69
2022-08-25T14:32:58.494Z,98085.38
2022-08-25T14:35:59.991Z,98087.97
2022-08-25T14:39:05.827Z,98085.09
2022-08-25T14:42:10.215Z,98087.16
2022-08-25T14:45:11.562Z,98088.66
2022-08-25T14:48:34.167Z,98079.16
2022-08-25T14:51:36.087Z,98080.53
2022-08-25T14:54:38.048Z,98081.53
2022-08-25T14:57:39.475Z,98084.72
2022-08-25T15:00:42.015Z,98089.13
2022-08-25T15:03:43.934Z,98081.13
2022-08-25T15:06:50.351Z,98077.47
2022-08-25T15:09:51.696Z,98080.81
2022-08-25T15:12:53.926Z,98083.47
2022-08-25T15:15:58.029Z,98064.06
2022-08-25T15:18:59.865Z,98070.03
2022-08-25T15:22:01.247Z,98087.91
2022-08-25T15:25:02.664Z,98082.03
2022-08-25T15:28:05.482Z,98080.34
2022-08-25T15:31:12.325Z,98085.25
2022-08-25T15:34:13.927Z,98090.88
2022-08-25T15:37:15.785Z,98091.94
2022-08-25T15:40:18.013Z,98079.22
2022-08-25T15:43:19.366Z,98082.19
2022-08-25T15:46:20.884Z,98078.88
2022-08-25T15:49:23.564Z,98077.88
2022-08-25T15:52:31.010Z,98086.97
2022-08-25T15:55:46.092Z,98073.09
2022-08-25T15:58:49.736Z,98085.78
2022-08-25T16:01:53.754Z,98074.91
2022-08-25T16:04:55.541Z,98080.84
2022-08-25T16:07:56.917Z,98070.47
2022-08-25T16:10:58.579Z,98078.31
2022-08-25T16:14:00.141Z,98076.47
2022-08-25T16:17:01.510Z,98087.56
2022-08-25T16:20:03.134Z,98084.75
2022-08-25T16:23:07.916Z,98090.72
2022-08-25T16:26:09.817Z,98083.47
2022-08-25T16:29:12.413Z,98083.75
2022-08-25T16:32:14.076Z,98073.81
2022-08-25T16:35:15.437Z,98078.22
2022-08-25T16:38:16.786Z,98082.09
2022-08-25T16:41:19.265Z,98074.00
2022-08-25T16:44:22.412Z,98076.13
2022-08-25T16:47:25.242Z,98066.66
2022-08-25T16:50:30.460Z,98072.72
2022-08-25T16:53:54.859Z,98074.72
2022-08-25T16:56:57.500Z,98069.44
2022-08-25T16:59:58.903Z,98068.75
2022-08-25T17:03:01.043Z,98065.06
2022-08-25T17:06:02.451Z,98076.25
2022-08-25T17:09:03.935Z,98080.50
2022-08-25T17:12:09.055Z,98085.75
2022-08-25T17:15:10.687Z,98086.88
2022-08-25T17:18:12.759Z,98079.22
2022-08-25T17:21:16.102Z,98079.19
2022-08-25T17:24:29.379Z,98085.41
2022-08-25T17:27:33.039Z,98087.63
2022-08-25T17:30:34.385Z,98094.84
2022-08-25T17:33:36.009Z,98085.16
2022-08-25T17:36:37.965Z,98092.63
2022-08-25T17:39:41.203Z,98097.88
2022-08-25T17:42:42.578Z,98112.66
2022-08-25T17:45:44.726Z,98106.50
2022-08-25T17:48:46.117Z,98117.75
2022-08-25T17:51:47.516Z,98127.00
2022-08-25T17:54:48.870Z,98132.31
2022-08-25T17:57:50.525Z,98142.00
2022-08-25T18:00:51.889Z,98138.63
2022-08-25T18:03:53.415Z,98145.47
2022-08-25T18:06:54.788Z,98137.94
2022-08-25T18:09:56.450Z,98154.69
2022-08-25T18:12:58.164Z,98154.50
2022-08-25T18:16:01.583Z,98160.03
2022-08-25T18:19:04.272Z,98145.84
2022-08-25T18:22:10.747Z,98147.88
2022-08-25T18:25:12.697Z,98157.66
2022-08-25T18:28:14.051Z,98147.97
2022-08-25T18:31:15.767Z,98148.41
2022-08-25T18:34:22.205Z,98149.88
2022-08-25T18:37:42.417Z,98157.53
2022-08-25T18:40:43.942Z,98159.44
2022-08-25T18:43:45.894Z,98162.88
2022-08-25T18:46:47.620Z,98166.28
2022-08-25T18:49:49.524Z,98165.63
2022-08-25T18:52:50.909Z,98177.50
2022-08-25T18:55:56.538Z,98175.97
2022-08-25T18:58:57.949Z,98177.50
2022-08-25T19:01:59.706Z,98182.53
2022-08-25T19:05:07.744Z,98181.38
2022-08-25T19:08:13.426Z,98183.97
2022-08-25T19:11:22.381Z,98187.28
2022-08-25T19:14:23.933Z,98188.34
2022-08-25T19:17:27.832Z,98186.00
2022-08-25T19:20:38.860Z,98189.41
2022-08-25T19:23:40.817Z,98191.00
2022-08-25T19:26:42.884Z,98200.53
2022-08-25T19:29:44.703Z,98195.97
2022-08-25T19:32:46.430Z,98206.94
2022-08-25T19:35:48.708Z,98206.09
2022-08-25T19:38:51.849Z,98200.34
2022-08-25T19:41:53.687Z,98200.53
2022-08-25T19:44:55.035Z,98207.38
2022-08-25T19:47:56.480Z,98205.16
2022-08-25T19:50:59.351Z,98200.53
2022-08-25T19:54:02.687Z,98202.66
2022-08-25T19:57:07.906Z,98200.25
2022-08-25T20:00:17.234Z,98198.38
2022-08-25T20:03:20.484Z,98211.50
2022-08-25T20:06:22.312Z,98214.16
2022-08-25T20:09:39.479Z,98207.47
2022-08-25T20:12:44.558Z,98220.31
2022-08-25T20:15:46.650Z,98208.59
2022-08-25T20:18:48.015Z,98222.81
2022-08-25T20:21:49.380Z,98207.72
2022-08-25T20:24:56.104Z,98217.91
2022-08-25T20:27:59.162Z,98220.25
2022-08-25T20:31:00.689Z,98221.09
2022-08-25T20:34:03.014Z,98227.06
2022-08-25T20:37:04.664Z,98219.28
2022-08-25T20:40:08.900Z,98230.72
2022-08-25T20:43:12.036Z,98233.38
2022-08-25T20:46:13.583Z,98227.69
2022-08-25T20:49:14.963Z,98235.13
2022-08-25T20:52:17.054Z,98228.63
2022-08-25T20:55:18.966Z,98234.84
2022-08-25T20:58:20.778Z,98230.53
2022-08-25T21:01:23.705Z,98229.44
2022-08-25T21:04:25.446Z,98238.56
2022-08-25T21:07:26.792Z,98240.97
2022-08-25T21:10:29.663Z,98236.53
2022-08-25T21:13:32.610Z,98238.41
2022-08-25T21:16:36.659Z,98240.78
2022-08-25T21:19:38.403Z,98241.69
2022-08-25T21:22:41.332Z,98243.09
2022-08-25T21:25:42.714Z,98243.00
2022-08-25T21:28:47.648Z,98241.31
2022-08-25T21:31:49.492Z,98234.94
2022-08-25T21:34:55.239Z,98241.06
2022-08-25T21:37:57.675Z,98233.56
2022-08-25T21:40:59.530Z,98235.06
2022-08-25T21:44:01.387Z,98238.88
2022-08-25T21:47:03.138Z,98240.47
2022-08-25T21:50:04.958Z,98239.16
2022-08-25T21:53:06.820Z,98237.72
2022-08-25T21:56:10.473Z,98236.00
2022-08-25T21:59:12.757Z,98241.19
2022-08-25T22:02:19.189Z,98240.00
2022-08-25T22:05:23.663Z,98245.94
2022-08-25T22:08:30.359Z,98246.13
2022-08-25T22:11:36.039Z,98232.16
2022-08-25T22:14:37.691Z,98237.09
2022-08-25T22:17:39.100Z,98235.09
2022-08-25T22:20:41.458Z,98244.75
2022-08-25T22:23:44.244Z,98240.09
2022-08-25T22:26:47.714Z,98242.31
2022-08-25T22:29:50.812Z,98236.75
2022-08-25T22:32:52.370Z,98232.56
2022-08-25T22:35:55.985Z,98233.50
2022-08-25T22:39:01.504Z,98236.69
2022-08-25T22:42:03.251Z,98237.13
2022-08-25T22:45:04.773Z,98227.66
2022-08-25T22:48:06.209Z,98233.22
2022-08-25T22:51:09.361Z,98234.28
2022-08-25T22:54:14.792Z,98230.00
2022-08-25T22:57:16.234Z,98222.00
2022-08-25T23:00:20.282Z,98220.97
2022-08-25T23:03:21.725Z,98223.44
2022-08-25T23:06:24.742Z,98221.06
2022-08-25T23:09:26.491Z,98222.09
2022-08-25T23:12:27.862Z,98217.84
2022-08-25T23:15:29.522Z,98218.41
2022-08-25T23:18:30.928Z,98213.06
2022-08-25T23:21:52.495Z,98218.69
2022-08-25T23:24:53.952Z,98203.41
2022-08-25T23:27:55.363Z,98205.44
2022-08-25T23:30:59.089Z,98205.16
2022-08-25T23:34:00.958Z,98197.41
2022-08-25T23:37:04.381Z,98203.06
2022-08-25T23:40:06.280Z,98202.16
2022-08-25T23:43:09.341Z,98202.06
2022-08-25T23:46:11.020Z,98203.13
2022-08-25T23:49:12.397Z,98197.84
2022-08-25T23:52:17.189Z,98202.53
2022-08-25T23:55:18.644Z,98192.19
2022-08-25T23:58:19.996Z,98191.44
